George Washington — WCP2897 — position and weather

sailwx.info

Track history (hours):
 
Tides and Currents Weather Stations Pressure Air Temp Water Temp Dewpoint Dewpoint Depression Visibility Wind Speed Wind Dir Waves Ship Positions

George Washington

Owner: PORT IMPERIAL FERRY CORP, WEEHAWKEN, NJ. More information available from US FCC via Universal Licensing System and Coast Guard Vessel Documentation Center.

Last reported at 2017-Oct-20 12:31 UTC. Time now 2017-Oct-20 12:40 UTC.
Position N 40°44' W 074°02'.

Length 21 m.

Type: Passenger vessel. MMSI: 366990610.

Date/timePositionNaut miles runAvg speedWind from/ knotsBaromVisibWave heightAir tempDewpointWater temp
2017-Oct-20 12:31N 40°44' W 074°02'2 4.2
2017-Oct-20 12:00N 40°42' W 074°00'2 3.2
2017-Oct-20 11:30N 40°43' W 074°01'1 1.2
2017-Oct-20 11:00N 40°44' W 074°02'2 0.2
2017-Oct-19 23:41N 40°46' W 074°01'213.3
2017-Oct-19 23:30N 40°44' W 074°02'1 2.0
2017-Oct-19 23:00N 40°43' W 074°01'1 2.4
2017-Oct-19 22:30N 40°42' W 074°00'2 4.3
2017-Oct-19 22:00N 40°44' W 074°02'1 2.1
2017-Oct-19 21:30N 40°43' W 074°01'1 2.5
2017-Oct-19 21:00N 40°42' W 074°00'2 4.1
2017-Oct-19 20:30N 40°44' W 074°02'1 2.0
2017-Oct-19 20:00N 40°43' W 074°01'1 2.1
2017-Oct-19 19:30N 40°44' W 074°02'1 2.1
2017-Oct-19 19:00N 40°43' W 074°01'1 2.1
2017-Oct-19 18:30N 40°44' W 074°02'1 1.4
2017-Oct-19 18:01N 40°43' W 074°01'2 3.4
2017-Oct-19 17:31N 40°45' W 074°01'2 3.9
2017-Oct-19 17:01N 40°43' W 074°02'3 5.2
2017-Oct-19 16:30N 40°46' W 074°00'4 8.0
2017-Oct-19 16:00N 40°42' W 074°02'4 7.6
2017-Oct-19 15:29N 40°46' W 074°00'0 0.1
2017-Oct-19 15:00N 40°46' W 074°00'1 1.4
2017-Oct-19 14:30N 40°46' W 074°01'0 0.1
2017-Oct-19 14:00N 40°46' W 074°01'4 8.2
2017-Oct-19 13:31N 40°42' W 074°00'1 1.9
2017-Oct-19 13:00N 40°43' W 074°01'1 3.0
2017-Oct-19 12:30N 40°44' W 074°02'2 4.4
2017-Oct-19 12:00N 40°42' W 074°00'1 2.9
2017-Oct-19 11:30N 40°43' W 074°01'1 1.7
2017-Oct-19 11:00N 40°44' W 074°02'2 4.6
2017-Oct-19 10:30N 40°46' W 074°01'0 0.0
2017-Oct-19 06:30N 40°46' W 074°01'0 0.0
2017-Oct-18 23:40N 40°46' W 074°01'214.3
2017-Oct-18 23:31N 40°44' W 074°01'1 2.1
2017-Oct-18 23:01N 40°43' W 074°01'1 2.4
2017-Oct-18 22:30N 40°42' W 074°00'2 4.4
2017-Oct-18 22:00N 40°44' W 074°02'1 1.7
2017-Oct-18 21:30N 40°43' W 074°01'1 2.6
2017-Oct-18 21:00N 40°42' W 074°00'2 4.3
2017-Oct-18 20:30N 40°44' W 074°02'1 2.4
2017-Oct-18 20:00N 40°43' W 074°01'1 2.4
2017-Oct-18 19:30N 40°44' W 074°02'1 2.4
2017-Oct-18 19:00N 40°43' W 074°01'1 2.3
2017-Oct-18 18:30N 40°44' W 074°02'1 2.4
2017-Oct-18 18:00N 40°43' W 074°01'4 7.3
2017-Oct-18 17:30N 40°47' W 074°01'0 0.0
2017-Oct-18 13:59N 40°47' W 074°01'4 9.2
2017-Oct-18 13:30N 40°42' W 074°00'1 2.0
2017-Oct-18 13:00N 40°43' W 074°02'2 3.0
2017-Oct-18 12:31N 40°44' W 074°02'2 4.3
2017-Oct-18 12:01N 40°42' W 074°00'2 3.0
2017-Oct-18 11:30N 40°43' W 074°01'1 1.5
2017-Oct-18 11:00N 40°44' W 074°02'2 4.4
2017-Oct-18 10:30N 40°46' W 074°01'0 0.0
2017-Oct-17 22:03N 40°46' W 074°01'0 1.1
2017-Oct-17 22:00N 40°46' W 074°01'3 6.8
2017-Oct-17 21:31N 40°43' W 074°01'1 2.3
2017-Oct-17 21:01N 40°44' W 074°02'1 1.9
2017-Oct-17 20:30N 40°45' W 074°01'3 6.5
2017-Oct-17 20:00N 40°42' W 074°01'1 1.4
2017-Oct-17 19:30N 40°42' W 074°01'3 6.6
2017-Oct-17 19:00N 40°46' W 074°00'2 3.2
2017-Oct-17 18:30N 40°44' W 074°01'2 4.6
2017-Oct-17 18:01N 40°42' W 074°01'0 0.7
2017-Oct-17 17:31N 40°42' W 074°00'4 7.1
2017-Oct-17 17:00N 40°46' W 074°00'2 3.3
2017-Oct-17 16:30N 40°44' W 074°01'2 4.4
2017-Oct-17 16:00N 40°42' W 074°00'0 0.5
2017-Oct-17 15:31N 40°42' W 074°00'4 7.3
2017-Oct-17 15:00N 40°46' W 074°00'0 0.0
2017-Oct-17 14:30N 40°46' W 074°00'1 1.4
2017-Oct-17 14:00N 40°46' W 074°01'4 8.2
2017-Oct-17 13:30N 40°42' W 074°00'1 2.4
2017-Oct-17 13:00N 40°43' W 074°02'1 2.3
2017-Oct-17 12:30N 40°44' W 074°02'2 4.5
2017-Oct-17 12:00N 40°42' W 074°00'2 3.2
2017-Oct-17 11:30N 40°43' W 074°02'1 1.5
2017-Oct-17 11:01N 40°44' W 074°02'1 2.7
2017-Oct-17 10:31N 40°45' W 074°01'1 2.0
2017-Oct-17 10:00N 40°46' W 074°01'0 0.0
2017-Oct-17 09:30N 40°46' W 074°01'0 0.0
2017-Oct-16 23:42N 40°46' W 074°01'212.1
2017-Oct-16 23:30N 40°44' W 074°01'1 1.8
2017-Oct-16 23:00N 40°43' W 074°01'1 2.6
2017-Oct-16 22:30N 40°42' W 074°00'2 4.4
2017-Oct-16 22:00N 40°44' W 074°02'1 2.1
2017-Oct-16 21:30N 40°43' W 074°01'1 2.4
2017-Oct-16 21:01N 40°42' W 074°00'2 4.4
2017-Oct-16 20:31N 40°44' W 074°02'1 2.6
2017-Oct-16 20:00N 40°43' W 074°01'1 2.6
2017-Oct-16 19:30N 40°44' W 074°02'1 2.3
2017-Oct-16 19:00N 40°43' W 074°01'1 2.2
2017-Oct-16 18:30N 40°44' W 074°02'1 2.5
2017-Oct-16 18:00N 40°43' W 074°01'3 6.6
2017-Oct-16 17:30N 40°46' W 074°01'0 0.4
2017-Oct-16 16:22N 40°47' W 074°01'0 0.0
2017-Oct-16 16:00N 40°47' W 074°01'0 0.0
2017-Oct-16 15:30N 40°47' W 074°01'0 0.0
2017-Oct-16 15:00N 40°47' W 074°01'0 0.0
2017-Oct-16 14:30N 40°47' W 074°01'4 4.4
2017-Oct-16 13:30N 40°42' W 074°00'1 1.9
2017-Oct-16 13:00N 40°43' W 074°01'1 3.0
2017-Oct-16 12:30N 40°44' W 074°02'2 4.5
2017-Oct-16 12:00N 40°42' W 074°00'1 2.8
2017-Oct-16 11:30N 40°43' W 074°02'1 2.0
2017-Oct-16 11:00N 40°44' W 074°02'3 0.2
2017-Oct-15 20:22N 40°47' W 074°01'0 0.0
2017-Oct-15 20:00N 40°47' W 074°01'1 2.0
2017-Oct-15 19:30N 40°46' W 074°00'1 2.0
2017-Oct-15 19:00N 40°47' W 074°01'1 1.9
2017-Oct-15 18:30N 40°46' W 074°00'1 1.9
2017-Oct-15 18:00N 40°47' W 074°01'1 2.0
2017-Oct-15 17:30N 40°46' W 074°00'4 8.9
2017-Oct-15 17:00N 40°41' W 074°02'4 8.8
2017-Oct-15 16:31N 40°46' W 074°00'4 8.9
2017-Oct-15 16:01N 40°41' W 074°02'4 8.9
2017-Oct-15 15:30N 40°46' W 074°00'0 0.4
2017-Oct-15 15:00N 40°46' W 074°00'1 0.0
2017-Oct-15 00:15N 40°46' W 074°01'2 9.3
2017-Oct-15 00:00N 40°44' W 074°01'3 5.5
2017-Oct-14 23:30N 40°43' W 073°58'2 3.6
2017-Oct-14 23:00N 40°45' W 073°58'3 5.5
2017-Oct-14 22:30N 40°42' W 073°60'0 0.9
2017-Oct-14 22:00N 40°42' W 074°00'0 0.7
2017-Oct-14 21:30N 40°42' W 074°00'3 5.1
2017-Oct-14 21:00N 40°44' W 073°58'0 0.6
2017-Oct-14 20:30N 40°44' W 073°58'3 6.5
2017-Oct-14 20:00N 40°41' W 074°01'1 1.4
2017-Oct-14 19:30N 40°42' W 074°00'1 1.1
2017-Oct-14 19:00N 40°42' W 074°01'3 5.3
2017-Oct-14 18:30N 40°43' W 073°58'1 1.2
2017-Oct-14 18:00N 40°44' W 073°58'3 6.5
2017-Oct-14 17:30N 40°42' W 074°01'1 1.4
2017-Oct-14 17:00N 40°42' W 074°00'1 2.3
2017-Oct-14 16:30N 40°43' W 074°01'1 1.4
2017-Oct-14 16:00N 40°44' W 074°01'1 1.9
2017-Oct-14 15:30N 40°45' W 074°01'0 0.0
2017-Oct-13 23:32N 40°44' W 074°01'0 6.0
2017-Oct-13 23:30N 40°44' W 074°02'1 2.4
2017-Oct-13 23:00N 40°43' W 074°01'1 2.2
2017-Oct-13 22:30N 40°42' W 074°00'2 4.3
2017-Oct-13 22:00N 40°44' W 074°02'1 2.3
2017-Oct-13 21:30N 40°43' W 074°01'1 2.3
2017-Oct-13 21:00N 40°42' W 074°00'1 1.4
2017-Oct-13 20:00N 40°43' W 074°01'1 1.7
2017-Oct-13 19:30N 40°44' W 074°02'1 1.7
2017-Oct-13 19:00N 40°43' W 074°01'1 1.7
2017-Oct-13 18:30N 40°44' W 074°02'1 1.6
2017-Oct-13 18:00N 40°43' W 074°01'3 6.0
2017-Oct-13 17:30N 40°46' W 074°01'0 0.1
2017-Oct-13 17:00N 40°46' W 074°01'0 0.0
2017-Oct-13 16:30N 40°46' W 074°01'4 8.2
2017-Oct-13 16:00N 40°42' W 074°02'4 7.4
2017-Oct-13 15:30N 40°46' W 074°00'1 1.5
2017-Oct-13 15:00N 40°46' W 074°01'0 0.0
2017-Oct-13 14:30N 40°46' W 074°01'0 0.6
2017-Oct-13 14:01N 40°46' W 074°01'4 7.5
2017-Oct-13 13:30N 40°42' W 074°00'2 2.2
2017-Oct-13 12:30N 40°44' W 074°02'2 4.2
2017-Oct-13 12:00N 40°42' W 074°00'1 2.5
2017-Oct-13 11:30N 40°43' W 074°01'1 2.1
2017-Oct-13 11:00N 40°44' W 074°02'2 0.2
2017-Oct-12 23:48N 40°46' W 074°01'2 7.7
2017-Oct-12 23:30N 40°44' W 074°02'1 1.6
2017-Oct-12 23:00N 40°43' W 074°01'1 2.7
2017-Oct-12 22:29N 40°42' W 074°00'2 4.4
2017-Oct-12 22:00N 40°44' W 074°02'1 2.1
2017-Oct-12 21:30N 40°43' W 074°01'1 2.4
2017-Oct-12 21:00N 40°42' W 074°00'2 4.3
2017-Oct-12 20:30N 40°44' W 074°02'1 2.3
2017-Oct-12 20:00N 40°43' W 074°01'1 2.2
2017-Oct-12 19:30N 40°44' W 074°02'1 1.9
2017-Oct-12 19:00N 40°43' W 074°01'0 0.1
2017-Oct-12 18:00N 40°43' W 074°01'2 5.0
2017-Oct-12 17:30N 40°46' W 074°00'4 7.7
2017-Oct-12 17:00N 40°42' W 074°02'4 7.7
2017-Oct-12 16:30N 40°46' W 074°00'5 9.3
2017-Oct-12 16:00N 40°41' W 074°02'5 9.2
2017-Oct-12 15:30N 40°46' W 074°00'0 0.0
2017-Oct-12 15:00N 40°46' W 074°00'1 1.4
2017-Oct-12 14:30N 40°46' W 074°01'0 0.3
2017-Oct-12 14:00N 40°46' W 074°01'4 7.9
2017-Oct-12 13:30N 40°42' W 074°00'1 2.7
2017-Oct-12 13:00N 40°43' W 074°02'1 1.9
2017-Oct-12 12:30N 40°44' W 074°02'2 4.4
2017-Oct-12 12:00N 40°42' W 074°00'2 3.1
2017-Oct-12 11:30N 40°43' W 074°02'1 1.2
2017-Oct-12 11:00N 40°44' W 074°02'2 4.6
2017-Oct-12 10:30N 40°46' W 074°01'0 0.0
2017-Oct-12 10:00N 40°46' W 074°01'0 0.0
2017-Oct-12 09:30N 40°46' W 074°01'0 0.0
2017-Oct-12 09:00N 40°46' W 074°01'0 0.0
2017-Oct-11 23:46N 40°46' W 074°01'2 8.3
2017-Oct-11 23:30N 40°44' W 074°02'1 2.2
2017-Oct-11 23:00N 40°43' W 074°02'1 2.5
2017-Oct-11 22:30N 40°42' W 074°00'2 4.4
2017-Oct-11 22:00N 40°44' W 074°02'1 2.1
2017-Oct-11 21:30N 40°43' W 074°01'1 2.5
2017-Oct-11 21:00N 40°42' W 074°00'2 4.3
2017-Oct-11 20:30N 40°44' W 074°02'1 1.9
2017-Oct-11 20:00N 40°43' W 074°01'1 1.9
2017-Oct-11 19:30N 40°44' W 074°02'1 1.7
2017-Oct-11 19:00N 40°43' W 074°01'0 0.1
2017-Oct-11 18:00N 40°43' W 074°01'3 6.2
2017-Oct-11 17:30N 40°46' W 074°01'0 0.0
2017-Oct-11 17:00N 40°46' W 074°01'0 0.0
2017-Oct-10 23:47N 40°46' W 074°01'2 8.2
2017-Oct-10 23:30N 40°44' W 074°02'1 2.5
2017-Oct-10 23:00N 40°43' W 074°02'1 2.4
2017-Oct-10 22:31N 40°42' W 074°00'2 4.2
2017-Oct-10 22:00N 40°44' W 074°02'1 2.1
2017-Oct-10 21:30N 40°43' W 074°01'1 2.4
2017-Oct-10 21:01N 40°42' W 074°00'2 4.3
2017-Oct-10 20:30N 40°44' W 074°02'1 1.9
2017-Oct-10 20:01N 40°43' W 074°01'1 1.9
2017-Oct-10 19:30N 40°44' W 074°02'1 1.8
2017-Oct-10 19:00N 40°43' W 074°01'1 1.7
2017-Oct-10 18:30N 40°44' W 074°02'1 2.1
2017-Oct-10 18:00N 40°43' W 074°01'3 6.4
2017-Oct-10 17:30N 40°46' W 074°01'0 0.1
2017-Oct-10 17:00N 40°46' W 074°01'1 1.5
2017-Oct-10 16:31N 40°46' W 074°00'5 9.0
2017-Oct-10 16:00N 40°41' W 074°02'5 8.9
2017-Oct-10 15:30N 40°46' W 074°00'0 0.0
2017-Oct-10 15:00N 40°46' W 074°00'0 0.5
2017-Oct-10 14:00N 40°46' W 074°01'4 7.6
2017-Oct-10 13:30N 40°42' W 074°00'1 2.0
2017-Oct-10 13:00N 40°43' W 074°02'  
Track history (hours):
 
Tides and Currents Weather Stations Pressure Air Temp Water Temp Dewpoint Dewpoint Depression Visibility Wind Speed Wind Dir Waves Ship Positions

George Washington

Owner: PORT IMPERIAL FERRY CORP, WEEHAWKEN, NJ. More information available from US FCC via Universal Licensing System and Coast Guard Vessel Documentation Center.

Last reported at 2017-Oct-20 12:31 UTC. Time now 2017-Oct-20 12:40 UTC.
Position N 40°44' W 074°02'.

Length 21 m.

Type: Passenger vessel. MMSI: 366990610.

Date/timePositionNaut miles runAvg speedWind from/ knotsBaromVisibWave heightAir tempDewpointWater temp
2017-Oct-20 12:31N 40°44' W 074°02'2 4.2
2017-Oct-20 12:00N 40°42' W 074°00'2 3.2
2017-Oct-20 11:30N 40°43' W 074°01'1 1.2
2017-Oct-20 11:00N 40°44' W 074°02'2 0.2
2017-Oct-19 23:41N 40°46' W 074°01'213.3
2017-Oct-19 23:30N 40°44' W 074°02'1 2.0
2017-Oct-19 23:00N 40°43' W 074°01'1 2.4
2017-Oct-19 22:30N 40°42' W 074°00'2 4.3
2017-Oct-19 22:00N 40°44' W 074°02'1 2.1
2017-Oct-19 21:30N 40°43' W 074°01'1 2.5
2017-Oct-19 21:00N 40°42' W 074°00'2 4.1
2017-Oct-19 20:30N 40°44' W 074°02'1 2.0
2017-Oct-19 20:00N 40°43' W 074°01'1 2.1
2017-Oct-19 19:30N 40°44' W 074°02'1 2.1
2017-Oct-19 19:00N 40°43' W 074°01'1 2.1
2017-Oct-19 18:30N 40°44' W 074°02'1 1.4
2017-Oct-19 18:01N 40°43' W 074°01'2 3.4
2017-Oct-19 17:31N 40°45' W 074°01'2 3.9
2017-Oct-19 17:01N 40°43' W 074°02'3 5.2
2017-Oct-19 16:30N 40°46' W 074°00'4 8.0
2017-Oct-19 16:00N 40°42' W 074°02'4 7.6
2017-Oct-19 15:29N 40°46' W 074°00'0 0.1
2017-Oct-19 15:00N 40°46' W 074°00'1 1.4
2017-Oct-19 14:30N 40°46' W 074°01'0 0.1
2017-Oct-19 14:00N 40°46' W 074°01'4 8.2
2017-Oct-19 13:31N 40°42' W 074°00'1 1.9
2017-Oct-19 13:00N 40°43' W 074°01'1 3.0
2017-Oct-19 12:30N 40°44' W 074°02'2 4.4
2017-Oct-19 12:00N 40°42' W 074°00'1 2.9
2017-Oct-19 11:30N 40°43' W 074°01'1 1.7
2017-Oct-19 11:00N 40°44' W 074°02'2 4.6
2017-Oct-19 10:30N 40°46' W 074°01'0 0.0
2017-Oct-19 06:30N 40°46' W 074°01'0 0.0
2017-Oct-18 23:40N 40°46' W 074°01'214.3
2017-Oct-18 23:31N 40°44' W 074°01'1 2.1
2017-Oct-18 23:01N 40°43' W 074°01'1 2.4
2017-Oct-18 22:30N 40°42' W 074°00'2 4.4
2017-Oct-18 22:00N 40°44' W 074°02'1 1.7
2017-Oct-18 21:30N 40°43' W 074°01'1 2.6
2017-Oct-18 21:00N 40°42' W 074°00'2 4.3
2017-Oct-18 20:30N 40°44' W 074°02'1 2.4
2017-Oct-18 20:00N 40°43' W 074°01'1 2.4
2017-Oct-18 19:30N 40°44' W 074°02'1 2.4
2017-Oct-18 19:00N 40°43' W 074°01'1 2.3
2017-Oct-18 18:30N 40°44' W 074°02'1 2.4
2017-Oct-18 18:00N 40°43' W 074°01'4 7.3
2017-Oct-18 17:30N 40°47' W 074°01'0 0.0
2017-Oct-18 13:59N 40°47' W 074°01'4 9.2
2017-Oct-18 13:30N 40°42' W 074°00'1 2.0
2017-Oct-18 13:00N 40°43' W 074°02'2 3.0
2017-Oct-18 12:31N 40°44' W 074°02'2 4.3
2017-Oct-18 12:01N 40°42' W 074°00'2 3.0
2017-Oct-18 11:30N 40°43' W 074°01'1 1.5
2017-Oct-18 11:00N 40°44' W 074°02'2 4.4
2017-Oct-18 10:30N 40°46' W 074°01'0 0.0
2017-Oct-17 22:03N 40°46' W 074°01'0 1.1
2017-Oct-17 22:00N 40°46' W 074°01'3 6.8
2017-Oct-17 21:31N 40°43' W 074°01'1 2.3
2017-Oct-17 21:01N 40°44' W 074°02'1 1.9
2017-Oct-17 20:30N 40°45' W 074°01'3 6.5
2017-Oct-17 20:00N 40°42' W 074°01'1 1.4
2017-Oct-17 19:30N 40°42' W 074°01'3 6.6
2017-Oct-17 19:00N 40°46' W 074°00'2 3.2
2017-Oct-17 18:30N 40°44' W 074°01'2 4.6
2017-Oct-17 18:01N 40°42' W 074°01'0 0.7
2017-Oct-17 17:31N 40°42' W 074°00'4 7.1
2017-Oct-17 17:00N 40°46' W 074°00'2 3.3
2017-Oct-17 16:30N 40°44' W 074°01'2 4.4
2017-Oct-17 16:00N 40°42' W 074°00'0 0.5
2017-Oct-17 15:31N 40°42' W 074°00'4 7.3
2017-Oct-17 15:00N 40°46' W 074°00'0 0.0
2017-Oct-17 14:30N 40°46' W 074°00'1 1.4
2017-Oct-17 14:00N 40°46' W 074°01'4 8.2
2017-Oct-17 13:30N 40°42' W 074°00'1 2.4
2017-Oct-17 13:00N 40°43' W 074°02'1 2.3
2017-Oct-17 12:30N 40°44' W 074°02'2 4.5
2017-Oct-17 12:00N 40°42' W 074°00'2 3.2
2017-Oct-17 11:30N 40°43' W 074°02'1 1.5
2017-Oct-17 11:01N 40°44' W 074°02'1 2.7
2017-Oct-17 10:31N 40°45' W 074°01'1 2.0
2017-Oct-17 10:00N 40°46' W 074°01'0 0.0
2017-Oct-17 09:30N 40°46' W 074°01'0 0.0
2017-Oct-16 23:42N 40°46' W 074°01'212.1
2017-Oct-16 23:30N 40°44' W 074°01'1 1.8
2017-Oct-16 23:00N 40°43' W 074°01'1 2.6
2017-Oct-16 22:30N 40°42' W 074°00'2 4.4
2017-Oct-16 22:00N 40°44' W 074°02'1 2.1
2017-Oct-16 21:30N 40°43' W 074°01'1 2.4
2017-Oct-16 21:01N 40°42' W 074°00'2 4.4
2017-Oct-16 20:31N 40°44' W 074°02'1 2.6
2017-Oct-16 20:00N 40°43' W 074°01'1 2.6
2017-Oct-16 19:30N 40°44' W 074°02'1 2.3
2017-Oct-16 19:00N 40°43' W 074°01'1 2.2
2017-Oct-16 18:30N 40°44' W 074°02'1 2.5
2017-Oct-16 18:00N 40°43' W 074°01'3 6.6
2017-Oct-16 17:30N 40°46' W 074°01'0 0.4
2017-Oct-16 16:22N 40°47' W 074°01'0 0.0
2017-Oct-16 16:00N 40°47' W 074°01'0 0.0
2017-Oct-16 15:30N 40°47' W 074°01'0 0.0
2017-Oct-16 15:00N 40°47' W 074°01'0 0.0
2017-Oct-16 14:30N 40°47' W 074°01'4 4.4
2017-Oct-16 13:30N 40°42' W 074°00'1 1.9
2017-Oct-16 13:00N 40°43' W 074°01'1 3.0
2017-Oct-16 12:30N 40°44' W 074°02'2 4.5
2017-Oct-16 12:00N 40°42' W 074°00'1 2.8
2017-Oct-16 11:30N 40°43' W 074°02'1 2.0
2017-Oct-16 11:00N 40°44' W 074°02'3 0.2
2017-Oct-15 20:22N 40°47' W 074°01'0 0.0
2017-Oct-15 20:00N 40°47' W 074°01'1 2.0
2017-Oct-15 19:30N 40°46' W 074°00'1 2.0
2017-Oct-15 19:00N 40°47' W 074°01'1 1.9
2017-Oct-15 18:30N 40°46' W 074°00'1 1.9
2017-Oct-15 18:00N 40°47' W 074°01'1 2.0
2017-Oct-15 17:30N 40°46' W 074°00'4 8.9
2017-Oct-15 17:00N 40°41' W 074°02'4 8.8
2017-Oct-15 16:31N 40°46' W 074°00'4 8.9
2017-Oct-15 16:01N 40°41' W 074°02'4 8.9
2017-Oct-15 15:30N 40°46' W 074°00'0 0.4
2017-Oct-15 15:00N 40°46' W 074°00'1 0.0
2017-Oct-15 00:15N 40°46' W 074°01'2 9.3
2017-Oct-15 00:00N 40°44' W 074°01'3 5.5
2017-Oct-14 23:30N 40°43' W 073°58'2 3.6
2017-Oct-14 23:00N 40°45' W 073°58'3 5.5
2017-Oct-14 22:30N 40°42' W 073°60'0 0.9
2017-Oct-14 22:00N 40°42' W 074°00'0 0.7
2017-Oct-14 21:30N 40°42' W 074°00'3 5.1
2017-Oct-14 21:00N 40°44' W 073°58'0 0.6
2017-Oct-14 20:30N 40°44' W 073°58'3 6.5
2017-Oct-14 20:00N 40°41' W 074°01'1 1.4
2017-Oct-14 19:30N 40°42' W 074°00'1 1.1
2017-Oct-14 19:00N 40°42' W 074°01'3 5.3
2017-Oct-14 18:30N 40°43' W 073°58'1 1.2
2017-Oct-14 18:00N 40°44' W 073°58'3 6.5
2017-Oct-14 17:30N 40°42' W 074°01'1 1.4
2017-Oct-14 17:00N 40°42' W 074°00'1 2.3
2017-Oct-14 16:30N 40°43' W 074°01'1 1.4
2017-Oct-14 16:00N 40°44' W 074°01'1 1.9
2017-Oct-14 15:30N 40°45' W 074°01'0 0.0
2017-Oct-13 23:32N 40°44' W 074°01'0 6.0
2017-Oct-13 23:30N 40°44' W 074°02'1 2.4
2017-Oct-13 23:00N 40°43' W 074°01'1 2.2
2017-Oct-13 22:30N 40°42' W 074°00'2 4.3
2017-Oct-13 22:00N 40°44' W 074°02'1 2.3
2017-Oct-13 21:30N 40°43' W 074°01'1 2.3
2017-Oct-13 21:00N 40°42' W 074°00'1 1.4
2017-Oct-13 20:00N 40°43' W 074°01'1 1.7
2017-Oct-13 19:30N 40°44' W 074°02'1 1.7
2017-Oct-13 19:00N 40°43' W 074°01'1 1.7
2017-Oct-13 18:30N 40°44' W 074°02'1 1.6
2017-Oct-13 18:00N 40°43' W 074°01'3 6.0
2017-Oct-13 17:30N 40°46' W 074°01'0 0.1
2017-Oct-13 17:00N 40°46' W 074°01'0 0.0
2017-Oct-13 16:30N 40°46' W 074°01'4 8.2
2017-Oct-13 16:00N 40°42' W 074°02'4 7.4
2017-Oct-13 15:30N 40°46' W 074°00'1 1.5
2017-Oct-13 15:00N 40°46' W 074°01'0 0.0
2017-Oct-13 14:30N 40°46' W 074°01'0 0.6
2017-Oct-13 14:01N 40°46' W 074°01'4 7.5
2017-Oct-13 13:30N 40°42' W 074°00'2 2.2
2017-Oct-13 12:30N 40°44' W 074°02'2 4.2
2017-Oct-13 12:00N 40°42' W 074°00'1 2.5
2017-Oct-13 11:30N 40°43' W 074°01'1 2.1
2017-Oct-13 11:00N 40°44' W 074°02'2 0.2
2017-Oct-12 23:48N 40°46' W 074°01'2 7.7
2017-Oct-12 23:30N 40°44' W 074°02'1 1.6
2017-Oct-12 23:00N 40°43' W 074°01'1 2.7
2017-Oct-12 22:29N 40°42' W 074°00'2 4.4
2017-Oct-12 22:00N 40°44' W 074°02'1 2.1
2017-Oct-12 21:30N 40°43' W 074°01'1 2.4
2017-Oct-12 21:00N 40°42' W 074°00'2 4.3
2017-Oct-12 20:30N 40°44' W 074°02'1 2.3
2017-Oct-12 20:00N 40°43' W 074°01'1 2.2
2017-Oct-12 19:30N 40°44' W 074°02'1 1.9
2017-Oct-12 19:00N 40°43' W 074°01'0 0.1
2017-Oct-12 18:00N 40°43' W 074°01'2 5.0
2017-Oct-12 17:30N 40°46' W 074°00'4 7.7
2017-Oct-12 17:00N 40°42' W 074°02'4 7.7
2017-Oct-12 16:30N 40°46' W 074°00'5 9.3
2017-Oct-12 16:00N 40°41' W 074°02'5 9.2
2017-Oct-12 15:30N 40°46' W 074°00'0 0.0
2017-Oct-12 15:00N 40°46' W 074°00'1 1.4
2017-Oct-12 14:30N 40°46' W 074°01'0 0.3
2017-Oct-12 14:00N 40°46' W 074°01'4 7.9
2017-Oct-12 13:30N 40°42' W 074°00'1 2.7
2017-Oct-12 13:00N 40°43' W 074°02'1 1.9
2017-Oct-12 12:30N 40°44' W 074°02'2 4.4
2017-Oct-12 12:00N 40°42' W 074°00'2 3.1
2017-Oct-12 11:30N 40°43' W 074°02'1 1.2
2017-Oct-12 11:00N 40°44' W 074°02'2 4.6
2017-Oct-12 10:30N 40°46' W 074°01'0 0.0
2017-Oct-12 10:00N 40°46' W 074°01'0 0.0
2017-Oct-12 09:30N 40°46' W 074°01'0 0.0
2017-Oct-12 09:00N 40°46' W 074°01'0 0.0
2017-Oct-11 23:46N 40°46' W 074°01'2 8.3
2017-Oct-11 23:30N 40°44' W 074°02'1 2.2
2017-Oct-11 23:00N 40°43' W 074°02'1 2.5
2017-Oct-11 22:30N 40°42' W 074°00'2 4.4
2017-Oct-11 22:00N 40°44' W 074°02'1 2.1
2017-Oct-11 21:30N 40°43' W 074°01'1 2.5
2017-Oct-11 21:00N 40°42' W 074°00'2 4.3
2017-Oct-11 20:30N 40°44' W 074°02'1 1.9
2017-Oct-11 20:00N 40°43' W 074°01'1 1.9
2017-Oct-11 19:30N 40°44' W 074°02'1 1.7
2017-Oct-11 19:00N 40°43' W 074°01'0 0.1
2017-Oct-11 18:00N 40°43' W 074°01'3 6.2
2017-Oct-11 17:30N 40°46' W 074°01'0 0.0
2017-Oct-11 17:00N 40°46' W 074°01'0 0.0
2017-Oct-10 23:47N 40°46' W 074°01'2 8.2
2017-Oct-10 23:30N 40°44' W 074°02'1 2.5
2017-Oct-10 23:00N 40°43' W 074°02'1 2.4
2017-Oct-10 22:31N 40°42' W 074°00'2 4.2
2017-Oct-10 22:00N 40°44' W 074°02'1 2.1
2017-Oct-10 21:30N 40°43' W 074°01'1 2.4
2017-Oct-10 21:01N 40°42' W 074°00'2 4.3
2017-Oct-10 20:30N 40°44' W 074°02'1 1.9
2017-Oct-10 20:01N 40°43' W 074°01'1 1.9
2017-Oct-10 19:30N 40°44' W 074°02'1 1.8
2017-Oct-10 19:00N 40°43' W 074°01'1 1.7
2017-Oct-10 18:30N 40°44' W 074°02'1 2.1
2017-Oct-10 18:00N 40°43' W 074°01'3 6.4
2017-Oct-10 17:30N 40°46' W 074°01'0 0.1
2017-Oct-10 17:00N 40°46' W 074°01'1 1.5
2017-Oct-10 16:31N 40°46' W 074°00'5 9.0
2017-Oct-10 16:00N 40°41' W 074°02'5 8.9
2017-Oct-10 15:30N 40°46' W 074°00'0 0.0
2017-Oct-10 15:00N 40°46' W 074°00'0 0.5
2017-Oct-10 14:00N 40°46' W 074°01'4 7.6
2017-Oct-10 13:30N 40°42' W 074°00'1 2.0
2017-Oct-10 13:00N 40°43' W 074°02'  

Dump ship's entire track history